createdAt,value
2018-09-21T00:01:21.173Z,100159.43
2018-09-21T00:03:55.168Z,100157.08
2018-09-21T00:06:24.525Z,100158.59
2018-09-21T00:08:54.279Z,100151.05
2018-09-21T00:11:23.286Z,100153.59
2018-09-21T00:13:52.555Z,100145.89
2018-09-21T00:16:22.093Z,100143.02
2018-09-21T00:18:51.197Z,100144.47
2018-09-21T00:21:20.441Z,100143.95
2018-09-21T00:23:49.328Z,100148.77
2018-09-21T00:26:18.249Z,100159.00
2018-09-21T00:28:47.521Z,100145.13
2018-09-21T00:31:16.428Z,100149.56
2018-09-21T00:33:45.269Z,100147.07
2018-09-21T00:36:14.649Z,100145.89
2018-09-21T00:38:43.496Z,100150.23
2018-09-21T00:41:12.373Z,100144.73
2018-09-21T00:43:41.637Z,100144.03
2018-09-21T00:46:10.512Z,100141.89
2018-09-21T00:48:39.381Z,100136.53
2018-09-21T00:51:08.676Z,100135.87
2018-09-21T00:53:37.564Z,100136.43
2018-09-21T00:56:06.407Z,100134.08
2018-09-21T00:58:35.634Z,100135.31
2018-09-21T01:01:04.548Z,100132.47
2018-09-21T01:03:33.404Z,100125.11
2018-09-21T01:06:03.312Z,100117.92
2018-09-21T01:08:32.179Z,100124.45
2018-09-21T01:11:01.081Z,100119.28
2018-09-21T01:13:30.279Z,100112.91
2018-09-21T01:15:59.232Z,100116.25
2018-09-21T01:18:28.076Z,100113.57
2018-09-21T01:20:57.500Z,100114.77
2018-09-21T01:23:26.378Z,100105.89
2018-09-21T01:25:55.466Z,100109.91
2018-09-21T01:28:24.746Z,100106.55
2018-09-21T01:30:53.571Z,100102.31
2018-09-21T01:33:22.395Z,100103.62
2018-09-21T01:35:52.666Z,100101.44
2018-09-21T01:38:21.529Z,100101.13
2018-09-21T01:40:50.385Z,100098.13
2018-09-21T01:43:19.821Z,100090.58
2018-09-21T01:45:48.682Z,100088.56
2018-09-21T01:48:18.513Z,100085.88
2018-09-21T01:50:47.907Z,100081.87
2018-09-21T01:53:16.758Z,100086.73
2018-09-21T01:55:45.662Z,100081.68
2018-09-21T01:58:14.808Z,100080.52
2018-09-21T02:00:43.685Z,100082.20
2018-09-21T02:03:12.564Z,100081.14
2018-09-21T02:05:41.837Z,100072.75
2018-09-21T02:08:10.802Z,100069.58
2018-09-21T02:10:39.702Z,100068.70
2018-09-21T02:13:08.616Z,100067.15
2018-09-21T02:15:37.966Z,100066.66
2018-09-21T02:18:06.793Z,100063.00
2018-09-21T02:20:35.765Z,100058.58
2018-09-21T02:23:04.644Z,100056.26
2018-09-21T02:25:33.878Z,100053.72
2018-09-21T02:28:03.456Z,100049.20
2018-09-21T02:30:32.385Z,100053.22
2018-09-21T02:33:01.589Z,100056.72
2018-09-21T02:35:30.416Z,100047.42
2018-09-21T02:37:59.305Z,100044.61
2018-09-21T02:40:28.283Z,100043.86
2018-09-21T02:42:57.142Z,100034.97
2018-09-21T02:45:26.356Z,100028.57
2018-09-21T02:47:55.227Z,100036.33
2018-09-21T02:50:24.229Z,100032.06
2018-09-21T02:52:53.097Z,100031.58
2018-09-21T02:55:21.966Z,100031.59
2018-09-21T02:57:51.404Z,100027.08
2018-09-21T03:00:20.343Z,100027.52
2018-09-21T03:02:49.178Z,100022.77
2018-09-21T03:05:18.176Z,100023.06
2018-09-21T03:07:47.044Z,100015.45
2018-09-21T03:10:16.599Z,100015.22
2018-09-21T03:12:45.529Z,100012.77
2018-09-21T03:15:14.507Z,100012.59
2018-09-21T03:17:43.909Z,100013.94
2018-09-21T03:20:12.800Z,100009.45
2018-09-21T03:22:41.666Z,100007.77
2018-09-21T03:25:10.928Z,100003.01
2018-09-21T03:27:39.809Z,99999.05
2018-09-21T03:30:08.726Z,99996.27
2018-09-21T03:32:37.914Z,99998.25
2018-09-21T03:35:06.969Z,99994.16
2018-09-21T03:37:35.814Z,99991.80
2018-09-21T03:40:05.730Z,99986.93
2018-09-21T03:42:34.599Z,99989.88
2018-09-21T03:45:03.490Z,99987.86
2018-09-21T03:47:32.716Z,99979.52
2018-09-21T03:50:01.625Z,99980.06
2018-09-21T03:52:30.537Z,99973.97
2018-09-21T03:54:59.800Z,99970.42
2018-09-21T03:57:28.657Z,99966.91
2018-09-21T03:59:57.550Z,99963.91
2018-09-21T04:02:26.845Z,99970.06
2018-09-21T04:04:55.741Z,99965.90
2018-09-21T04:07:24.655Z,99955.91
2018-09-21T04:09:53.781Z,99961.70
2018-09-21T04:12:23.072Z,99961.13
2018-09-21T04:14:51.984Z,99950.13
2018-09-21T04:17:21.981Z,99959.33
2018-09-21T04:19:50.873Z,99953.77
2018-09-21T04:22:20.003Z,99946.97
2018-09-21T04:24:48.905Z,99942.15
2018-09-21T04:27:17.797Z,99941.58
2018-09-21T04:29:47.162Z,99932.42
2018-09-21T04:32:16.210Z,99936.98
2018-09-21T04:34:45.115Z,99927.88
2018-09-21T04:37:14.357Z,99924.72
2018-09-21T04:39:44.185Z,99925.63
2018-09-21T04:42:13.114Z,99926.91
2018-09-21T04:44:42.351Z,99923.20
2018-09-21T04:47:11.271Z,99928.80
2018-09-21T04:49:40.169Z,99919.00
2018-09-21T04:52:09.398Z,99928.05
2018-09-21T04:54:38.287Z,99915.19
2018-09-21T04:57:07.134Z,99919.16
2018-09-21T04:59:36.438Z,99913.99
2018-09-21T05:02:06.053Z,99916.01
2018-09-21T05:04:34.978Z,99919.01
2018-09-21T05:07:04.317Z,99924.80
2018-09-21T05:09:33.242Z,99924.17
2018-09-21T05:12:02.954Z,99924.83
2018-09-21T05:14:32.238Z,99929.45
2018-09-21T05:17:01.102Z,99931.30
2018-09-21T05:19:29.970Z,99925.25
2018-09-21T05:21:59.227Z,99923.33
2018-09-21T05:24:28.144Z,99923.17
2018-09-21T05:26:57.035Z,99921.35
2018-09-21T05:29:26.239Z,99916.73
2018-09-21T05:31:55.194Z,99915.98
2018-09-21T05:34:24.066Z,99912.50
2018-09-21T05:36:53.261Z,99908.87
2018-09-21T05:39:22.200Z,99901.27
2018-09-21T05:41:51.102Z,99899.75
2018-09-21T05:44:20.583Z,99907.45
2018-09-21T05:46:49.537Z,99911.87
2018-09-21T05:49:18.937Z,99896.58
2018-09-21T05:51:47.911Z,99894.91
2018-09-21T05:54:17.153Z,99898.84
2018-09-21T05:56:47.255Z,99907.63
2018-09-21T05:59:16.142Z,99898.33
2018-09-21T06:01:45.029Z,99898.77
2018-09-21T06:04:14.361Z,99895.13
2018-09-21T06:06:43.280Z,99896.46
2018-09-21T06:09:13.598Z,99898.14
2018-09-21T06:11:43.449Z,99887.98
2018-09-21T06:14:13.002Z,99890.62
2018-09-21T06:16:41.850Z,99896.53
2018-09-21T06:19:11.275Z,99887.55
2018-09-21T06:21:40.128Z,99898.80
2018-09-21T06:24:08.992Z,99896.52
2018-09-21T06:26:38.098Z,99895.35
2018-09-21T06:29:06.974Z,99893.19
2018-09-21T06:31:35.825Z,99906.03
2018-09-21T06:34:06.608Z,99900.08
2018-09-21T06:36:35.492Z,99899.56
2018-09-21T06:39:06.283Z,99882.42
2018-09-21T06:41:35.174Z,99893.97
2018-09-21T06:44:04.856Z,99883.50
2018-09-21T06:46:34.591Z,99882.13
2018-09-21T06:49:03.555Z,99886.59
2018-09-21T06:51:32.475Z,99891.25
2018-09-21T06:54:03.112Z,99879.75
2018-09-21T06:56:38.603Z,99876.44
2018-09-21T06:59:08.182Z,99884.80
2018-09-21T07:01:37.063Z,99880.41
2018-09-21T07:04:06.301Z,99875.39
2018-09-21T07:06:35.163Z,99874.73
2018-09-21T07:09:06.857Z,99883.09
2018-09-21T07:11:36.040Z,99883.95
2018-09-21T07:14:07.479Z,99891.31
2018-09-21T07:16:36.342Z,99881.77
2018-09-21T07:19:05.721Z,99884.13
2018-09-21T07:21:34.566Z,99883.45
2018-09-21T07:24:05.422Z,99890.82
2018-09-21T07:26:34.843Z,99891.49
2018-09-21T07:29:03.748Z,99886.58
2018-09-21T07:31:32.581Z,99893.30
2018-09-21T07:34:01.898Z,99897.98
2018-09-21T07:36:31.177Z,99904.52
2018-09-21T07:39:00.079Z,99909.86
2018-09-21T07:41:29.341Z,99914.54
2018-09-21T07:43:58.294Z,99916.76
2018-09-21T07:46:27.265Z,99896.91
2018-09-21T07:48:56.483Z,99891.76
2018-09-21T07:51:25.462Z,99886.23
2018-09-21T07:53:54.355Z,99883.97
2018-09-21T07:56:23.707Z,99890.36
2018-09-21T07:58:52.597Z,99884.83
2018-09-21T08:01:21.467Z,99884.84
2018-09-21T08:03:50.854Z,99881.67
2018-09-21T08:06:19.974Z,99891.87
2018-09-21T08:08:48.921Z,99894.70
2018-09-21T08:11:18.085Z,99902.91
2018-09-21T08:13:47.045Z,99899.09
2018-09-21T08:16:16.049Z,99899.08
2018-09-21T08:18:44.888Z,99899.06
2018-09-21T08:21:13.781Z,99910.13
2018-09-21T08:23:42.909Z,99905.73
2018-09-21T08:26:11.911Z,99897.38
2018-09-21T08:28:40.840Z,99901.04
2018-09-21T08:31:09.648Z,99911.95
2018-09-21T08:33:39.291Z,99913.94
2018-09-21T08:36:10.693Z,99915.23
2018-09-21T08:38:39.580Z,99915.69
2018-09-21T08:41:08.551Z,99924.67
2018-09-21T08:43:37.715Z,99925.91
2018-09-21T08:46:06.622Z,99920.61
2018-09-21T08:48:35.584Z,99922.44
2018-09-21T08:51:05.108Z,99920.42
2018-09-21T08:53:33.966Z,99911.55
2018-09-21T08:56:03.447Z,99905.48
2018-09-21T08:58:32.743Z,99903.94
2018-09-21T09:01:01.700Z,99897.59
2018-09-21T09:03:30.619Z,99906.85
2018-09-21T09:05:59.529Z,99913.43
2018-09-21T09:08:28.386Z,99902.98
2018-09-21T09:10:57.256Z,99895.56
2018-09-21T09:13:26.405Z,99882.80
2018-09-21T09:15:55.242Z,99884.66
2018-09-21T09:18:24.159Z,99885.22
2018-09-21T09:20:53.085Z,99880.59
2018-09-21T09:23:21.967Z,99889.95
2018-09-21T09:25:51.297Z,99883.52
2018-09-21T09:28:20.213Z,99892.70
2018-09-21T09:30:49.070Z,99891.88
2018-09-21T09:33:18.346Z,99900.13
2018-09-21T09:35:47.198Z,99903.03
2018-09-21T09:38:17.083Z,99900.34
2018-09-21T09:40:46.275Z,99895.23
2018-09-21T09:43:21.446Z,99903.63
2018-09-21T09:45:50.384Z,99892.35
2018-09-21T09:48:19.360Z,99886.16
2018-09-21T09:50:48.198Z,99888.36
2018-09-21T09:53:17.437Z,99897.61
2018-09-21T09:55:46.301Z,99890.02
2018-09-21T09:58:15.195Z,99899.98
2018-09-21T10:00:49.541Z,99904.16
2018-09-21T10:03:18.413Z,99900.38
2018-09-21T10:05:47.280Z,99895.11
2018-09-21T10:08:16.295Z,99909.01
2018-09-21T10:10:45.239Z,99905.42
2018-09-21T10:13:14.502Z,99918.36
2018-09-21T10:15:43.513Z,99902.63
2018-09-21T10:18:12.449Z,99918.58
2018-09-21T10:20:41.688Z,99912.92
2018-09-21T10:23:10.714Z,99897.91
2018-09-21T10:25:39.625Z,99899.16
2018-09-21T10:28:09.051Z,99894.58
2018-09-21T10:30:38.044Z,99901.44
2018-09-21T10:33:07.051Z,99903.47
2018-09-21T10:35:36.573Z,99899.08
2018-09-21T10:38:06.616Z,99883.62
2018-09-21T10:40:35.498Z,99869.72
2018-09-21T10:43:04.498Z,99878.22
2018-09-21T10:45:33.348Z,99870.48
2018-09-21T10:48:03.243Z,99852.61
2018-09-21T10:50:32.148Z,99853.89
2018-09-21T10:53:01.152Z,99848.33
2018-09-21T10:55:30.114Z,99849.53
2018-09-21T10:57:58.962Z,99850.45
2018-09-21T11:00:28.246Z,99855.05
2018-09-21T11:02:57.177Z,99848.37
2018-09-21T11:05:26.159Z,99851.01
2018-09-21T11:07:55.361Z,99855.80
2018-09-21T11:10:24.245Z,99851.72
2018-09-21T11:12:53.379Z,99841.22
2018-09-21T11:15:22.668Z,99846.00
2018-09-21T11:17:51.566Z,99842.81
2018-09-21T11:20:20.437Z,99839.03
2018-09-21T11:22:49.637Z,99840.91
2018-09-21T11:25:18.500Z,99843.84
2018-09-21T11:27:56.099Z,99853.64
2018-09-21T11:30:25.342Z,99862.36
2018-09-21T11:32:54.238Z,99857.28
2018-09-21T11:35:23.074Z,99862.66
2018-09-21T11:37:52.330Z,99869.84
2018-09-21T11:40:21.374Z,99859.47
2018-09-21T11:42:50.285Z,99862.36
2018-09-21T11:45:19.466Z,99856.13
2018-09-21T11:47:48.414Z,99864.39
2018-09-21T11:50:17.258Z,99857.09
2018-09-21T11:52:47.477Z,99874.96
2018-09-21T11:55:16.358Z,99876.30
2018-09-21T11:57:45.298Z,99868.39
2018-09-21T12:00:15.563Z,99873.38
2018-09-21T12:02:44.566Z,99888.64
2018-09-21T12:05:13.499Z,99893.22
2018-09-21T12:07:42.394Z,99885.25
2018-09-21T12:10:11.297Z,99885.86
2018-09-21T12:12:40.708Z,99886.91
2018-09-21T12:15:09.573Z,99887.45
2018-09-21T12:17:38.509Z,99884.31
2018-09-21T12:20:07.702Z,99877.48
2018-09-21T12:22:36.658Z,99880.52
2018-09-21T12:25:05.593Z,99876.27
2018-09-21T12:27:34.822Z,99864.88
2018-09-21T12:30:04.729Z,99853.45
2018-09-21T12:32:33.577Z,99844.99
2018-09-21T12:35:02.832Z,99828.09
2018-09-21T12:37:31.764Z,99830.44
2018-09-21T12:40:00.677Z,99849.83
2018-09-21T12:42:29.967Z,99852.91
2018-09-21T12:44:58.744Z,99860.03
2018-09-21T12:47:27.683Z,99864.95
2018-09-21T12:49:56.878Z,99840.21
2018-09-21T12:52:25.766Z,99843.81
2018-09-21T12:54:54.593Z,99841.87
2018-09-21T12:57:23.748Z,99846.34
2018-09-21T12:59:52.958Z,99844.34
2018-09-21T13:02:21.840Z,99839.42
2018-09-21T13:04:51.063Z,99842.72
2018-09-21T13:07:19.960Z,99853.70
2018-09-21T13:09:48.792Z,99853.02
2018-09-21T13:12:19.149Z,99857.94
2018-09-21T13:14:48.052Z,99868.73
2018-09-21T13:17:17.061Z,99858.13
2018-09-21T13:19:45.927Z,99857.98
2018-09-21T13:22:14.819Z,99846.58
2018-09-21T13:24:44.018Z,99867.47
2018-09-21T13:27:12.857Z,99872.48
2018-09-21T13:29:41.792Z,99867.42
2018-09-21T13:32:10.723Z,99872.14
2018-09-21T13:34:39.889Z,99868.02
2018-09-21T13:37:09.029Z,99879.40
2018-09-21T13:39:37.860Z,99891.08
2018-09-21T13:42:06.685Z,99894.98
2018-09-21T13:44:35.594Z,99894.05
2018-09-21T13:47:04.473Z,99901.76
2018-09-21T13:49:33.880Z,99917.03
2018-09-21T13:52:03.440Z,99902.13
2018-09-21T13:54:32.295Z,99922.40
2018-09-21T13:57:01.673Z,99925.60
2018-09-21T13:59:30.658Z,99935.03
2018-09-21T14:01:59.570Z,99965.50
2018-09-21T14:04:28.775Z,99990.56
2018-09-21T14:06:57.718Z,100034.84
2018-09-21T14:09:30.147Z,100044.42
2018-09-21T14:11:59.912Z,100057.38
2018-09-21T14:14:28.761Z,100078.11
2018-09-21T14:16:57.913Z,100085.16
2018-09-21T14:19:27.029Z,100094.14
2018-09-21T14:21:56.230Z,100103.41
2018-09-21T14:24:25.664Z,100112.19
2018-09-21T14:26:54.661Z,100121.13
2018-09-21T14:29:23.612Z,100131.31
2018-09-21T14:31:52.501Z,100145.13
2018-09-21T14:34:21.394Z,100173.33
2018-09-21T14:36:51.067Z,100156.77
2018-09-21T14:39:20.028Z,100154.84
2018-09-21T14:41:48.899Z,100153.73
2018-09-21T14:44:17.817Z,100156.17
2018-09-21T14:46:46.746Z,100181.06
2018-09-21T14:49:16.132Z,100196.40
2018-09-21T14:51:45.159Z,100211.09
2018-09-21T14:54:14.026Z,100196.30
2018-09-21T14:56:42.949Z,100220.29
2018-09-21T14:59:11.789Z,100204.80
2018-09-21T15:01:41.199Z,100192.90
2018-09-21T15:04:10.164Z,100180.88
2018-09-21T15:06:39.088Z,100177.62
2018-09-21T15:09:10.505Z,100192.59
2018-09-21T15:11:39.767Z,100194.13
2018-09-21T15:14:08.732Z,100221.73
2018-09-21T15:16:38.503Z,100234.72
2018-09-21T15:19:07.373Z,100249.91
2018-09-21T15:21:36.246Z,100243.20
2018-09-21T15:24:06.260Z,100231.26
2018-09-21T15:26:35.139Z,100229.63
2018-09-21T15:29:04.062Z,100231.31
2018-09-21T15:31:33.267Z,100240.75
2018-09-21T15:34:03.166Z,100250.23
2018-09-21T15:36:32.046Z,100255.45
2018-09-21T15:39:01.291Z,100246.28
2018-09-21T15:41:30.261Z,100247.30
2018-09-21T15:43:59.132Z,100253.16
2018-09-21T15:46:27.976Z,100256.78
2018-09-21T15:48:56.894Z,100247.27
2018-09-21T15:51:26.063Z,100265.16
2018-09-21T15:53:54.962Z,100268.75
2018-09-21T15:56:23.787Z,100276.52
2018-09-21T15:58:53.064Z,100280.41
2018-09-21T16:01:22.028Z,100286.12
2018-09-21T16:03:50.882Z,100304.53
2018-09-21T16:06:20.266Z,100300.09
2018-09-21T16:08:49.159Z,100316.31
2018-09-21T16:11:18.122Z,100323.41
2018-09-21T16:13:47.462Z,100322.73
2018-09-21T16:16:17.384Z,100331.55
2018-09-21T16:18:46.318Z,100331.25
2018-09-21T16:21:15.557Z,100346.42
2018-09-21T16:23:44.686Z,100358.19
2018-09-21T16:26:13.651Z,100355.29
2018-09-21T16:28:42.975Z,100350.42
2018-09-21T16:31:11.865Z,100356.55
2018-09-21T16:33:40.756Z,100376.59
2018-09-21T16:36:10.179Z,100377.05
2018-09-21T16:38:39.129Z,100391.56
2018-09-21T16:41:08.085Z,100404.32
2018-09-21T16:43:37.254Z,100403.77
2018-09-21T16:46:07.382Z,100410.56
2018-09-21T16:48:36.238Z,100415.04
2018-09-21T16:51:05.644Z,100410.20
2018-09-21T16:53:34.615Z,100399.74
2018-09-21T16:56:05.039Z,100416.94
2018-09-21T16:58:34.400Z,100414.74
2018-09-21T17:01:03.350Z,100409.53
2018-09-21T17:03:32.218Z,100414.77
2018-09-21T17:06:01.516Z,100419.82
2018-09-21T17:08:30.481Z,100431.92
2018-09-21T17:10:59.458Z,100430.31
2018-09-21T17:13:28.800Z,100443.78
2018-09-21T17:15:57.771Z,100454.09
2018-09-21T17:18:26.807Z,100446.49
2018-09-21T17:20:55.757Z,100465.59
2018-09-21T17:23:24.720Z,100463.78
2018-09-21T17:25:54.339Z,100452.58
2018-09-21T17:28:23.246Z,100463.66
2018-09-21T17:30:52.433Z,100459.06
2018-09-21T17:33:21.718Z,100464.13
2018-09-21T17:35:50.636Z,100471.54
2018-09-21T17:38:19.989Z,100477.19
2018-09-21T17:40:48.930Z,100484.81
2018-09-21T17:43:17.846Z,100489.91
2018-09-21T17:45:47.047Z,100504.48
2018-09-21T17:48:16.018Z,100507.52
2018-09-21T17:50:44.982Z,100521.27
2018-09-21T17:53:14.482Z,100523.11
2018-09-21T17:55:43.387Z,100525.98
2018-09-21T17:58:12.275Z,100539.77
2018-09-21T18:00:41.517Z,100544.30
2018-09-21T18:03:10.349Z,100548.08
2018-09-21T18:05:39.441Z,100554.12
2018-09-21T18:08:08.744Z,100554.58
2018-09-21T18:10:37.751Z,100559.81
2018-09-21T18:13:06.734Z,100569.11
2018-09-21T18:15:35.993Z,100571.77
2018-09-21T18:18:07.044Z,100580.44
2018-09-21T18:20:35.973Z,100582.82
2018-09-21T18:23:04.884Z,100586.23
2018-09-21T18:25:33.839Z,100593.55
2018-09-21T18:28:04.865Z,100603.67
2018-09-21T18:30:34.090Z,100613.72
2018-09-21T18:33:03.004Z,100612.62
2018-09-21T18:35:31.892Z,100604.78
2018-09-21T18:38:01.071Z,100612.48
2018-09-21T18:40:29.982Z,100614.32
2018-09-21T18:42:58.904Z,100628.55
2018-09-21T18:45:27.810Z,100630.30
2018-09-21T18:47:56.730Z,100628.75
2018-09-21T18:50:26.061Z,100632.38
2018-09-21T18:52:55.066Z,100646.98
2018-09-21T18:55:23.944Z,100645.70
2018-09-21T18:57:52.810Z,100640.63
2018-09-21T19:00:21.687Z,100643.28
2018-09-21T19:02:50.963Z,100639.27
2018-09-21T19:05:19.875Z,100640.59
2018-09-21T19:07:48.837Z,100651.33
2018-09-21T19:10:18.243Z,100645.38
2018-09-21T19:12:47.320Z,100658.38
2018-09-21T19:15:17.208Z,100660.44
2018-09-21T19:17:46.434Z,100659.45
2018-09-21T19:20:16.325Z,100669.25
2018-09-21T19:22:45.184Z,100668.66
2018-09-21T19:25:14.407Z,100675.78
2018-09-21T19:27:43.320Z,100681.33
2018-09-21T19:30:12.324Z,100697.11
2018-09-21T19:32:41.596Z,100705.28
2018-09-21T19:35:10.674Z,100706.35
2018-09-21T19:37:39.579Z,100720.23
2018-09-21T19:40:08.910Z,100723.88
2018-09-21T19:42:37.930Z,100721.33
2018-09-21T19:45:07.173Z,100727.38
2018-09-21T19:47:36.604Z,100734.98
2018-09-21T19:50:06.795Z,100737.06
2018-09-21T19:52:35.714Z,100739.98
2018-09-21T19:55:05.556Z,100744.36
2018-09-21T19:57:34.493Z,100738.34
2018-09-21T20:00:04.429Z,100747.34
2018-09-21T20:02:33.591Z,100758.36
2018-09-21T20:05:02.505Z,100766.53
2018-09-21T20:07:31.397Z,100771.64
2018-09-21T20:10:00.278Z,100770.84
2018-09-21T20:12:29.138Z,100776.34
2018-09-21T20:14:58.357Z,100777.20
2018-09-21T20:17:27.268Z,100777.69
2018-09-21T20:19:56.372Z,100787.91
2018-09-21T20:22:25.784Z,100796.05
2018-09-21T20:24:54.628Z,100805.31
2018-09-21T20:27:23.633Z,100803.92
2018-09-21T20:29:57.073Z,100803.72
2018-09-21T20:32:30.967Z,100804.84
2018-09-21T20:34:59.913Z,100816.92
2018-09-21T20:37:29.194Z,100820.95
2018-09-21T20:39:58.042Z,100816.51
2018-09-21T20:42:27.072Z,100826.50
2018-09-21T20:44:56.222Z,100831.66
2018-09-21T20:47:25.137Z,100828.69
2018-09-21T20:49:54.061Z,100826.27
2018-09-21T20:52:23.232Z,100835.43
2018-09-21T20:54:52.154Z,100836.13
2018-09-21T20:57:21.032Z,100840.34
2018-09-21T20:59:52.183Z,100829.98
2018-09-21T21:02:21.135Z,100835.44
2018-09-21T21:04:49.956Z,100838.14
2018-09-21T21:07:19.222Z,100849.44
2018-09-21T21:09:48.097Z,100870.42
2018-09-21T21:12:17.453Z,100872.02
2018-09-21T21:14:46.729Z,100879.56
2018-09-21T21:17:15.673Z,100883.72
2018-09-21T21:19:44.592Z,100877.83
2018-09-21T21:22:13.476Z,100881.02
2018-09-21T21:24:49.005Z,100894.02
2018-09-21T21:27:18.206Z,100887.18
2018-09-21T21:29:47.240Z,100893.11
2018-09-21T21:32:16.326Z,100892.90
2018-09-21T21:34:45.554Z,100894.57
2018-09-21T21:37:14.429Z,100894.27
2018-09-21T21:39:43.414Z,100895.92
2018-09-21T21:42:12.790Z,100908.28
2018-09-21T21:44:41.721Z,100906.60
2018-09-21T21:47:10.572Z,100913.55
2018-09-21T21:49:39.729Z,100914.38
2018-09-21T21:52:08.636Z,100910.55
2018-09-21T21:54:37.597Z,100924.00
2018-09-21T21:57:06.884Z,100931.66
2018-09-21T21:59:35.710Z,100943.88
2018-09-21T22:02:09.404Z,100942.22
2018-09-21T22:04:39.313Z,100934.57
2018-09-21T22:07:08.860Z,100942.83
2018-09-21T22:09:37.775Z,100941.99
2018-09-21T22:12:12.157Z,100942.52
2018-09-21T22:14:41.156Z,100948.73
2018-09-21T22:17:10.103Z,100952.26
2018-09-21T22:19:40.366Z,100942.80
2018-09-21T22:22:09.234Z,100955.87
2018-09-21T22:24:38.189Z,100956.77
2018-09-21T22:27:07.450Z,100959.99
2018-09-21T22:29:36.338Z,100968.23
2018-09-21T22:32:05.818Z,100956.41
2018-09-21T22:34:34.764Z,100954.23
2018-09-21T22:37:03.809Z,100958.77
2018-09-21T22:39:32.951Z,100959.99
2018-09-21T22:42:02.437Z,100964.66
2018-09-21T22:44:31.366Z,100973.45
2018-09-21T22:47:00.545Z,100972.37
2018-09-21T22:49:29.467Z,100968.09
2018-09-21T22:51:58.365Z,100973.05
2018-09-21T22:54:27.570Z,100979.40
2018-09-21T22:56:56.461Z,100982.27
2018-09-21T22:59:25.312Z,100969.50
2018-09-21T23:01:54.477Z,100965.05
2018-09-21T23:04:23.338Z,100975.02
2018-09-21T23:06:52.283Z,100979.34
2018-09-21T23:09:21.461Z,100971.52
2018-09-21T23:11:50.349Z,100974.27
2018-09-21T23:14:20.122Z,100975.81
2018-09-21T23:17:03.739Z,100984.57
2018-09-21T23:19:32.625Z,100994.83
2018-09-21T23:22:01.585Z,100996.16
2018-09-21T23:24:30.742Z,100999.78
2018-09-21T23:26:59.617Z,101004.80
2018-09-21T23:29:28.505Z,100994.30
2018-09-21T23:31:57.349Z,100994.47
2018-09-21T23:34:26.751Z,100998.70
2018-09-21T23:36:55.617Z,101016.70
2018-09-21T23:39:24.840Z,101014.17
2018-09-21T23:41:53.718Z,101021.26
2018-09-21T23:44:22.555Z,101018.39
2018-09-21T23:46:51.929Z,101019.28
2018-09-21T23:49:20.864Z,101026.55
2018-09-21T23:51:49.716Z,101022.19
2018-09-21T23:54:18.608Z,101017.10
2018-09-21T23:56:47.837Z,101024.29
2018-09-21T23:59:16.710Z,101029.59
